sensor_id;sensor_type;location;lat;lon;timestamp;P1;durP1;ratioP1;P2;durP2;ratioP2
69744;SDS011;57015;50.120;-5.168;2023-09-08T00:00:31;92.40;;;34.67;;
69744;SDS011;57015;50.120;-5.168;2023-09-08T00:02:57;85.57;;;34.05;;
69744;SDS011;57015;50.120;-5.168;2023-09-08T00:05:22;86.07;;;33.28;;
69744;SDS011;57015;50.120;-5.168;2023-09-08T00:07:47;82.73;;;33.70;;
69744;SDS011;57015;50.120;-5.168;2023-09-08T00:10:13;81.60;;;33.87;;
69744;SDS011;57015;50.120;-5.168;2023-09-08T00:12:38;89.80;;;34.97;;
69744;SDS011;57015;50.120;-5.168;2023-09-08T00:15:05;85.18;;;35.90;;
69744;SDS011;57015;50.120;-5.168;2023-09-08T00:17:31;89.50;;;36.00;;
69744;SDS011;57015;50.120;-5.168;2023-09-08T00:19:57;86.60;;;35.35;;
69744;SDS011;57015;50.120;-5.168;2023-09-08T00:22:23;89.00;;;35.70;;
69744;SDS011;57015;50.120;-5.168;2023-09-08T00:24:48;84.15;;;33.80;;
69744;SDS011;57015;50.120;-5.168;2023-09-08T00:27:14;91.50;;;34.73;;
69744;SDS011;57015;50.120;-5.168;2023-09-08T00:29:39;88.73;;;33.27;;
69744;SDS011;57015;50.120;-5.168;2023-09-08T00:32:04;85.60;;;33.10;;
69744;SDS011;57015;50.120;-5.168;2023-09-08T00:34:30;81.18;;;31.77;;
69744;SDS011;57015;50.120;-5.168;2023-09-08T00:36:55;78.47;;;31.63;;
69744;SDS011;57015;50.120;-5.168;2023-09-08T00:39:21;86.97;;;34.07;;
69744;SDS011;57015;50.120;-5.168;2023-09-08T00:41:47;87.65;;;31.90;;
69744;SDS011;57015;50.120;-5.168;2023-09-08T00:44:12;95.73;;;35.17;;
69744;SDS011;57015;50.120;-5.168;2023-09-08T00:46:38;87.47;;;35.23;;
69744;SDS011;57015;50.120;-5.168;2023-09-08T00:49:04;90.53;;;34.17;;
69744;SDS011;57015;50.120;-5.168;2023-09-08T00:51:30;82.75;;;33.55;;
69744;SDS011;57015;50.120;-5.168;2023-09-08T00:53:56;86.33;;;32.90;;
69744;SDS011;57015;50.120;-5.168;2023-09-08T00:56:22;83.07;;;32.63;;
69744;SDS011;57015;50.120;-5.168;2023-09-08T00:58:48;93.72;;;37.15;;
69744;SDS011;57015;50.120;-5.168;2023-09-08T01:01:13;88.50;;;36.25;;
69744;SDS011;57015;50.120;-5.168;2023-09-08T01:03:39;91.13;;;34.20;;
69744;SDS011;57015;50.120;-5.168;2023-09-08T01:06:04;85.53;;;35.00;;
69744;SDS011;57015;50.120;-5.168;2023-09-08T01:08:31;83.55;;;34.13;;
69744;SDS011;57015;50.120;-5.168;2023-09-08T01:10:56;83.93;;;35.50;;
69744;SDS011;57015;50.120;-5.168;2023-09-08T01:13:22;88.57;;;36.78;;
69744;SDS011;57015;50.120;-5.168;2023-09-08T01:15:47;92.77;;;36.80;;
69744;SDS011;57015;50.120;-5.168;2023-09-08T01:18:13;97.07;;;38.67;;
69744;SDS011;57015;50.120;-5.168;2023-09-08T01:25:35;123.60;;;31.67;;
69744;SDS011;57015;50.120;-5.168;2023-09-08T01:28:22;123.63;;;30.73;;
69744;SDS011;57015;50.120;-5.168;2023-09-08T01:30:48;95.15;;;32.80;;
69744;SDS011;57015;50.120;-5.168;2023-09-08T01:33:14;98.15;;;31.73;;
69744;SDS011;57015;50.120;-5.168;2023-09-08T01:35:40;104.65;;;33.65;;
69744;SDS011;57015;50.120;-5.168;2023-09-08T01:38:06;95.87;;;32.00;;
69744;SDS011;57015;50.120;-5.168;2023-09-08T01:40:31;110.07;;;32.37;;
69744;SDS011;57015;50.120;-5.168;2023-09-08T01:42:56;96.13;;;32.27;;
69744;SDS011;57015;50.120;-5.168;2023-09-08T01:45:22;93.57;;;29.60;;
69744;SDS011;57015;50.120;-5.168;2023-09-08T01:47:47;87.20;;;30.77;;
69744;SDS011;57015;50.120;-5.168;2023-09-08T01:50:13;89.43;;;30.13;;
69744;SDS011;57015;50.120;-5.168;2023-09-08T01:52:38;86.27;;;30.83;;
69744;SDS011;57015;50.120;-5.168;2023-09-08T01:55:04;84.00;;;30.93;;
69744;SDS011;57015;50.120;-5.168;2023-09-08T01:57:29;78.97;;;27.48;;
69744;SDS011;57015;50.120;-5.168;2023-09-08T01:59:55;78.27;;;28.10;;
69744;SDS011;57015;50.120;-5.168;2023-09-08T02:02:20;82.07;;;28.40;;
69744;SDS011;57015;50.120;-5.168;2023-09-08T02:04:46;86.57;;;30.53;;
69744;SDS011;57015;50.120;-5.168;2023-09-08T02:07:11;77.47;;;27.90;;
69744;SDS011;57015;50.120;-5.168;2023-09-08T02:09:37;84.43;;;28.00;;
69744;SDS011;57015;50.120;-5.168;2023-09-08T02:12:03;85.65;;;27.42;;
69744;SDS011;57015;50.120;-5.168;2023-09-08T02:14:29;87.55;;;29.10;;
69744;SDS011;57015;50.120;-5.168;2023-09-08T02:16:54;93.25;;;25.77;;
69744;SDS011;57015;50.120;-5.168;2023-09-08T02:19:20;100.63;;;26.90;;
69744;SDS011;57015;50.120;-5.168;2023-09-08T02:21:45;87.20;;;25.80;;
69744;SDS011;57015;50.120;-5.168;2023-09-08T02:24:11;85.73;;;23.30;;
69744;SDS011;57015;50.120;-5.168;2023-09-08T02:26:37;81.18;;;25.40;;
69744;SDS011;57015;50.120;-5.168;2023-09-08T02:29:03;74.40;;;27.03;;
69744;SDS011;57015;50.120;-5.168;2023-09-08T02:31:28;87.90;;;23.30;;
69744;SDS011;57015;50.120;-5.168;2023-09-08T02:33:54;68.77;;;22.53;;
69744;SDS011;57015;50.120;-5.168;2023-09-08T02:36:20;71.72;;;24.55;;
69744;SDS011;57015;50.120;-5.168;2023-09-08T02:38:55;65.67;;;22.67;;
69744;SDS011;57015;50.120;-5.168;2023-09-08T02:41:21;72.55;;;24.33;;
69744;SDS011;57015;50.120;-5.168;2023-09-08T02:43:47;73.57;;;24.60;;
69744;SDS011;57015;50.120;-5.168;2023-09-08T02:46:13;98.72;;;23.63;;
69744;SDS011;57015;50.120;-5.168;2023-09-08T02:48:38;99.65;;;23.40;;
69744;SDS011;57015;50.120;-5.168;2023-09-08T02:51:04;86.13;;;20.35;;
69744;SDS011;57015;50.120;-5.168;2023-09-08T02:53:29;76.40;;;20.43;;
69744;SDS011;57015;50.120;-5.168;2023-09-08T02:55:55;84.00;;;20.77;;
69744;SDS011;57015;50.120;-5.168;2023-09-08T02:58:21;62.60;;;20.70;;
69744;SDS011;57015;50.120;-5.168;2023-09-08T03:00:47;57.17;;;20.30;;
69744;SDS011;57015;50.120;-5.168;2023-09-08T03:03:12;56.10;;;20.15;;
69744;SDS011;57015;50.120;-5.168;2023-09-08T03:05:37;62.27;;;19.53;;
69744;SDS011;57015;50.120;-5.168;2023-09-08T03:08:03;53.97;;;18.20;;
69744;SDS011;57015;50.120;-5.168;2023-09-08T03:10:30;63.80;;;19.10;;
69744;SDS011;57015;50.120;-5.168;2023-09-08T03:12:59;63.53;;;17.70;;
69744;SDS011;57015;50.120;-5.168;2023-09-08T03:15:24;47.28;;;16.63;;
69744;SDS011;57015;50.120;-5.168;2023-09-08T03:17:53;52.08;;;16.92;;
69744;SDS011;57015;50.120;-5.168;2023-09-08T03:20:19;65.78;;;15.68;;
69744;SDS011;57015;50.120;-5.168;2023-09-08T03:22:44;40.90;;;15.27;;
69744;SDS011;57015;50.120;-5.168;2023-09-08T03:25:10;52.97;;;13.90;;
69744;SDS011;57015;50.120;-5.168;2023-09-08T03:27:35;40.13;;;15.00;;
69744;SDS011;57015;50.120;-5.168;2023-09-08T03:30:01;40.07;;;14.63;;
69744;SDS011;57015;50.120;-5.168;2023-09-08T03:32:28;42.17;;;14.00;;
69744;SDS011;57015;50.120;-5.168;2023-09-08T03:34:54;43.67;;;11.55;;
69744;SDS011;57015;50.120;-5.168;2023-09-08T03:37:19;37.33;;;12.33;;
69744;SDS011;57015;50.120;-5.168;2023-09-08T03:39:44;42.67;;;10.97;;
69744;SDS011;57015;50.120;-5.168;2023-09-08T03:42:10;42.30;;;11.60;;
69744;SDS011;57015;50.120;-5.168;2023-09-08T03:44:35;30.05;;;11.82;;
69744;SDS011;57015;50.120;-5.168;2023-09-08T03:47:00;34.13;;;11.60;;
69744;SDS011;57015;50.120;-5.168;2023-09-08T03:49:27;27.75;;;12.23;;
69744;SDS011;57015;50.120;-5.168;2023-09-08T03:51:53;21.20;;;9.83;;
69744;SDS011;57015;50.120;-5.168;2023-09-08T03:54:18;25.70;;;11.13;;
69744;SDS011;57015;50.120;-5.168;2023-09-08T03:56:44;25.00;;;10.23;;
69744;SDS011;57015;50.120;-5.168;2023-09-08T03:59:09;28.50;;;11.37;;
69744;SDS011;57015;50.120;-5.168;2023-09-08T04:01:34;28.93;;;10.30;;
69744;SDS011;57015;50.120;-5.168;2023-09-08T04:04:00;24.08;;;9.73;;
69744;SDS011;57015;50.120;-5.168;2023-09-08T04:06:25;28.37;;;10.40;;
69744;SDS011;57015;50.120;-5.168;2023-09-08T04:08:52;28.52;;;10.60;;
69744;SDS011;57015;50.120;-5.168;2023-09-08T04:11:17;23.97;;;9.27;;
69744;SDS011;57015;50.120;-5.168;2023-09-08T04:13:42;26.23;;;10.93;;
69744;SDS011;57015;50.120;-5.168;2023-09-08T04:16:08;21.43;;;10.03;;
69744;SDS011;57015;50.120;-5.168;2023-09-08T04:18:34;21.17;;;9.43;;
69744;SDS011;57015;50.120;-5.168;2023-09-08T04:20:59;28.17;;;9.30;;
69744;SDS011;57015;50.120;-5.168;2023-09-08T04:23:25;21.37;;;9.37;;
69744;SDS011;57015;50.120;-5.168;2023-09-08T04:25:50;25.73;;;9.07;;
69744;SDS011;57015;50.120;-5.168;2023-09-08T04:28:16;20.52;;;8.73;;
69744;SDS011;57015;50.120;-5.168;2023-09-08T04:30:41;19.10;;;8.30;;
69744;SDS011;57015;50.120;-5.168;2023-09-08T04:33:06;16.33;;;8.63;;
69744;SDS011;57015;50.120;-5.168;2023-09-08T04:35:32;20.67;;;7.70;;
69744;SDS011;57015;50.120;-5.168;2023-09-08T04:37:57;20.10;;;8.57;;
69744;SDS011;57015;50.120;-5.168;2023-09-08T04:40:22;22.43;;;7.93;;
69744;SDS011;57015;50.120;-5.168;2023-09-08T04:42:48;24.47;;;7.63;;
69744;SDS011;57015;50.120;-5.168;2023-09-08T04:45:13;17.65;;;7.95;;
69744;SDS011;57015;50.120;-5.168;2023-09-08T04:47:39;16.30;;;6.47;;
69744;SDS011;57015;50.120;-5.168;2023-09-08T04:50:04;13.83;;;7.03;;
69744;SDS011;57015;50.120;-5.168;2023-09-08T04:52:30;14.55;;;7.13;;
69744;SDS011;57015;50.120;-5.168;2023-09-08T04:54:55;11.43;;;5.40;;
69744;SDS011;57015;50.120;-5.168;2023-09-08T04:57:21;12.37;;;6.10;;
69744;SDS011;57015;50.120;-5.168;2023-09-08T04:59:46;11.90;;;5.93;;
69744;SDS011;57015;50.120;-5.168;2023-09-08T05:02:11;12.27;;;5.40;;
69744;SDS011;57015;50.120;-5.168;2023-09-08T05:04:37;14.73;;;6.13;;
69744;SDS011;57015;50.120;-5.168;2023-09-08T05:07:02;12.67;;;5.70;;
69744;SDS011;57015;50.120;-5.168;2023-09-08T05:09:28;13.75;;;6.10;;
69744;SDS011;57015;50.120;-5.168;2023-09-08T05:11:53;12.67;;;6.17;;
69744;SDS011;57015;50.120;-5.168;2023-09-08T05:14:19;12.57;;;4.97;;
69744;SDS011;57015;50.120;-5.168;2023-09-08T05:16:44;9.65;;;5.70;;
69744;SDS011;57015;50.120;-5.168;2023-09-08T05:19:11;7.60;;;4.97;;
69744;SDS011;57015;50.120;-5.168;2023-09-08T05:21:38;7.93;;;4.50;;
69744;SDS011;57015;50.120;-5.168;2023-09-08T05:24:05;7.40;;;3.78;;
69744;SDS011;57015;50.120;-5.168;2023-09-08T05:26:30;6.40;;;4.38;;
69744;SDS011;57015;50.120;-5.168;2023-09-08T05:28:56;6.37;;;3.80;;
69744;SDS011;57015;50.120;-5.168;2023-09-08T05:31:21;5.77;;;3.50;;
69744;SDS011;57015;50.120;-5.168;2023-09-08T05:33:47;6.40;;;3.90;;
69744;SDS011;57015;50.120;-5.168;2023-09-08T05:36:12;8.98;;;4.05;;
69744;SDS011;57015;50.120;-5.168;2023-09-08T05:38:38;7.20;;;4.67;;
69744;SDS011;57015;50.120;-5.168;2023-09-08T05:41:03;11.13;;;4.40;;
69744;SDS011;57015;50.120;-5.168;2023-09-08T05:43:28;8.77;;;3.67;;
69744;SDS011;57015;50.120;-5.168;2023-09-08T05:45:54;6.97;;;4.10;;
69744;SDS011;57015;50.120;-5.168;2023-09-08T05:48:19;12.50;;;3.80;;
69744;SDS011;57015;50.120;-5.168;2023-09-08T05:50:44;11.25;;;3.85;;
69744;SDS011;57015;50.120;-5.168;2023-09-08T05:53:10;8.07;;;4.10;;
69744;SDS011;57015;50.120;-5.168;2023-09-08T05:55:35;9.23;;;4.60;;
69744;SDS011;57015;50.120;-5.168;2023-09-08T05:58:01;10.63;;;3.73;;
69744;SDS011;57015;50.120;-5.168;2023-09-08T06:00:27;6.82;;;4.00;;
69744;SDS011;57015;50.120;-5.168;2023-09-08T06:02:52;6.87;;;3.97;;
69744;SDS011;57015;50.120;-5.168;2023-09-08T06:05:18;6.37;;;3.97;;
69744;SDS011;57015;50.120;-5.168;2023-09-08T06:07:43;7.00;;;4.20;;
69744;SDS011;57015;50.120;-5.168;2023-09-08T06:10:09;7.85;;;4.43;;
69744;SDS011;57015;50.120;-5.168;2023-09-08T06:12:34;6.67;;;3.97;;
69744;SDS011;57015;50.120;-5.168;2023-09-08T06:15:01;7.03;;;3.80;;
69744;SDS011;57015;50.120;-5.168;2023-09-08T06:17:28;5.88;;;3.40;;
69744;SDS011;57015;50.120;-5.168;2023-09-08T06:19:53;5.73;;;3.40;;
69744;SDS011;57015;50.120;-5.168;2023-09-08T06:22:18;5.20;;;3.50;;
69744;SDS011;57015;50.120;-5.168;2023-09-08T06:24:44;5.40;;;3.22;;
69744;SDS011;57015;50.120;-5.168;2023-09-08T06:27:10;4.77;;;2.70;;
69744;SDS011;57015;50.120;-5.168;2023-09-08T06:29:36;6.30;;;3.33;;
69744;SDS011;57015;50.120;-5.168;2023-09-08T06:32:02;4.60;;;3.17;;
69744;SDS011;57015;50.120;-5.168;2023-09-08T06:34:27;4.50;;;2.83;;
69744;SDS011;57015;50.120;-5.168;2023-09-08T06:36:53;4.27;;;2.43;;
69744;SDS011;57015;50.120;-5.168;2023-09-08T06:39:18;6.13;;;2.70;;
69744;SDS011;57015;50.120;-5.168;2023-09-08T06:41:43;9.23;;;2.73;;
69744;SDS011;57015;50.120;-5.168;2023-09-08T06:44:09;5.32;;;2.65;;
69744;SDS011;57015;50.120;-5.168;2023-09-08T06:46:34;5.13;;;2.87;;
69744;SDS011;57015;50.120;-5.168;2023-09-08T06:48:59;5.87;;;3.03;;
69744;SDS011;57015;50.120;-5.168;2023-09-08T06:51:25;4.97;;;2.97;;
69744;SDS011;57015;50.120;-5.168;2023-09-08T06:53:54;4.20;;;2.63;;
69744;SDS011;57015;50.120;-5.168;2023-09-08T06:56:21;3.93;;;2.70;;
69744;SDS011;57015;50.120;-5.168;2023-09-08T06:58:47;5.95;;;2.20;;
69744;SDS011;57015;50.120;-5.168;2023-09-08T07:01:12;5.00;;;2.83;;
69744;SDS011;57015;50.120;-5.168;2023-09-08T07:03:37;4.43;;;2.53;;
69744;SDS011;57015;50.120;-5.168;2023-09-08T07:06:03;2.80;;;1.97;;
69744;SDS011;57015;50.120;-5.168;2023-09-08T07:08:28;3.88;;;3.17;;
69744;SDS011;57015;50.120;-5.168;2023-09-08T07:10:54;4.22;;;2.65;;
69744;SDS011;57015;50.120;-5.168;2023-09-08T07:13:19;3.57;;;2.40;;
69744;SDS011;57015;50.120;-5.168;2023-09-08T07:15:45;3.07;;;2.50;;
69744;SDS011;57015;50.120;-5.168;2023-09-08T07:18:10;3.70;;;2.40;;
69744;SDS011;57015;50.120;-5.168;2023-09-08T07:20:36;3.55;;;2.55;;
69744;SDS011;57015;50.120;-5.168;2023-09-08T07:23:01;5.53;;;3.00;;
69744;SDS011;57015;50.120;-5.168;2023-09-08T07:25:27;5.97;;;2.70;;
69744;SDS011;57015;50.120;-5.168;2023-09-08T07:27:52;4.50;;;2.30;;
69744;SDS011;57015;50.120;-5.168;2023-09-08T07:30:19;4.47;;;2.50;;
69744;SDS011;57015;50.120;-5.168;2023-09-08T07:32:44;3.40;;;2.45;;
69744;SDS011;57015;50.120;-5.168;2023-09-08T07:35:10;4.27;;;2.10;;
69744;SDS011;57015;50.120;-5.168;2023-09-08T07:37:39;4.22;;;2.55;;
69744;SDS011;57015;50.120;-5.168;2023-09-08T07:40:11;4.28;;;2.40;;
69744;SDS011;57015;50.120;-5.168;2023-09-08T07:42:37;7.15;;;2.88;;
69744;SDS011;57015;50.120;-5.168;2023-09-08T07:45:02;5.77;;;2.77;;
69744;SDS011;57015;50.120;-5.168;2023-09-08T07:47:28;5.03;;;3.00;;
69744;SDS011;57015;50.120;-5.168;2023-09-08T07:50:15;4.57;;;2.87;;
69744;SDS011;57015;50.120;-5.168;2023-09-08T07:52:42;3.20;;;2.22;;
69744;SDS011;57015;50.120;-5.168;2023-09-08T07:55:08;4.30;;;2.50;;
69744;SDS011;57015;50.120;-5.168;2023-09-08T07:57:33;5.23;;;2.53;;
69744;SDS011;57015;50.120;-5.168;2023-09-08T07:59:58;7.05;;;2.70;;
69744;SDS011;57015;50.120;-5.168;2023-09-08T08:02:24;4.60;;;2.63;;
69744;SDS011;57015;50.120;-5.168;2023-09-08T08:04:49;6.13;;;3.00;;
69744;SDS011;57015;50.120;-5.168;2023-09-08T08:07:15;6.77;;;3.43;;
69744;SDS011;57015;50.120;-5.168;2023-09-08T08:09:40;5.57;;;2.90;;
69744;SDS011;57015;50.120;-5.168;2023-09-08T08:12:05;3.93;;;3.27;;
69744;SDS011;57015;50.120;-5.168;2023-09-08T08:14:31;5.37;;;3.57;;
69744;SDS011;57015;50.120;-5.168;2023-09-08T08:16:56;4.72;;;3.33;;
69744;SDS011;57015;50.120;-5.168;2023-09-08T08:19:21;5.37;;;3.57;;
69744;SDS011;57015;50.120;-5.168;2023-09-08T08:21:47;5.70;;;4.13;;
69744;SDS011;57015;50.120;-5.168;2023-09-08T08:24:12;10.50;;;4.10;;
69744;SDS011;57015;50.120;-5.168;2023-09-08T08:26:38;9.07;;;3.50;;
69744;SDS011;57015;50.120;-5.168;2023-09-08T08:29:03;5.72;;;3.30;;
69744;SDS011;57015;50.120;-5.168;2023-09-08T08:31:29;6.40;;;3.58;;
69744;SDS011;57015;50.120;-5.168;2023-09-08T08:33:54;6.63;;;3.73;;
69744;SDS011;57015;50.120;-5.168;2023-09-08T08:36:19;6.43;;;3.57;;
69744;SDS011;57015;50.120;-5.168;2023-09-08T08:38:45;8.33;;;3.10;;
69744;SDS011;57015;50.120;-5.168;2023-09-08T08:41:10;9.57;;;3.90;;
69744;SDS011;57015;50.120;-5.168;2023-09-08T08:43:36;6.93;;;3.80;;
69744;SDS011;57015;50.120;-5.168;2023-09-08T08:46:02;7.90;;;3.92;;
69744;SDS011;57015;50.120;-5.168;2023-09-08T08:48:29;8.25;;;3.95;;
69744;SDS011;57015;50.120;-5.168;2023-09-08T08:50:55;9.50;;;4.40;;
69744;SDS011;57015;50.120;-5.168;2023-09-08T08:53:22;8.90;;;3.87;;
69744;SDS011;57015;50.120;-5.168;2023-09-08T08:55:47;7.53;;;3.85;;
69744;SDS011;57015;50.120;-5.168;2023-09-08T08:58:14;6.07;;;3.90;;
69744;SDS011;57015;50.120;-5.168;2023-09-08T09:00:40;8.15;;;4.10;;
69744;SDS011;57015;50.120;-5.168;2023-09-08T09:03:06;6.65;;;4.30;;
69744;SDS011;57015;50.120;-5.168;2023-09-08T09:05:32;9.93;;;4.47;;
69744;SDS011;57015;50.120;-5.168;2023-09-08T09:08:00;7.65;;;4.45;;
69744;SDS011;57015;50.120;-5.168;2023-09-08T09:10:28;7.82;;;4.57;;
69744;SDS011;57015;50.120;-5.168;2023-09-08T09:12:55;9.75;;;5.88;;
69744;SDS011;57015;50.120;-5.168;2023-09-08T09:15:28;9.70;;;4.47;;
69744;SDS011;57015;50.120;-5.168;2023-09-08T09:18:07;7.43;;;5.25;;
69744;SDS011;57015;50.120;-5.168;2023-09-08T09:20:32;10.30;;;5.60;;
69744;SDS011;57015;50.120;-5.168;2023-09-08T09:22:58;8.05;;;5.47;;
69744;SDS011;57015;50.120;-5.168;2023-09-08T09:25:25;8.25;;;6.13;;
69744;SDS011;57015;50.120;-5.168;2023-09-08T09:27:55;8.80;;;5.45;;
69744;SDS011;57015;50.120;-5.168;2023-09-08T09:30:22;7.65;;;5.10;;
69744;SDS011;57015;50.120;-5.168;2023-09-08T09:32:48;10.65;;;5.07;;
69744;SDS011;57015;50.120;-5.168;2023-09-08T09:35:15;7.40;;;4.65;;
69744;SDS011;57015;50.120;-5.168;2023-09-08T09:37:41;7.70;;;4.80;;
69744;SDS011;57015;50.120;-5.168;2023-09-08T09:40:06;11.38;;;4.75;;
69744;SDS011;57015;50.120;-5.168;2023-09-08T09:42:34;9.25;;;4.57;;
69744;SDS011;57015;50.120;-5.168;2023-09-08T09:45:03;9.00;;;4.93;;
69744;SDS011;57015;50.120;-5.168;2023-09-08T09:47:29;9.27;;;5.35;;
69744;SDS011;57015;50.120;-5.168;2023-09-08T09:49:55;14.40;;;4.72;;
69744;SDS011;57015;50.120;-5.168;2023-09-08T09:52:23;8.67;;;4.73;;
69744;SDS011;57015;50.120;-5.168;2023-09-08T09:54:51;11.23;;;4.80;;
69744;SDS011;57015;50.120;-5.168;2023-09-08T09:57:20;10.25;;;4.93;;
69744;SDS011;57015;50.120;-5.168;2023-09-08T09:59:46;13.68;;;5.20;;
69744;SDS011;57015;50.120;-5.168;2023-09-08T10:02:15;8.95;;;4.68;;
69744;SDS011;57015;50.120;-5.168;2023-09-08T10:04:40;10.33;;;5.13;;
69744;SDS011;57015;50.120;-5.168;2023-09-08T10:07:06;11.17;;;5.40;;
69744;SDS011;57015;50.120;-5.168;2023-09-08T10:09:32;9.40;;;4.90;;
69744;SDS011;57015;50.120;-5.168;2023-09-08T10:11:58;12.40;;;4.67;;
69744;SDS011;57015;50.120;-5.168;2023-09-08T10:14:28;11.23;;;4.90;;
69744;SDS011;57015;50.120;-5.168;2023-09-08T10:16:53;10.93;;;6.30;;
69744;SDS011;57015;50.120;-5.168;2023-09-08T10:19:22;15.05;;;6.03;;
69744;SDS011;57015;50.120;-5.168;2023-09-08T10:21:47;10.00;;;5.00;;
69744;SDS011;57015;50.120;-5.168;2023-09-08T10:24:29;9.07;;;4.70;;
69744;SDS011;57015;50.120;-5.168;2023-09-08T10:27:00;9.73;;;4.82;;
69744;SDS011;57015;50.120;-5.168;2023-09-08T10:29:29;11.68;;;4.88;;
69744;SDS011;57015;50.120;-5.168;2023-09-08T10:31:55;15.18;;;4.82;;
69744;SDS011;57015;50.120;-5.168;2023-09-08T10:34:21;11.77;;;5.00;;
69744;SDS011;57015;50.120;-5.168;2023-09-08T10:36:48;14.10;;;5.10;;
69744;SDS011;57015;50.120;-5.168;2023-09-08T10:47:22;11.25;;;5.57;;
69744;SDS011;57015;50.120;-5.168;2023-09-08T10:49:47;11.43;;;5.32;;
69744;SDS011;57015;50.120;-5.168;2023-09-08T10:52:15;10.90;;;5.13;;
69744;SDS011;57015;50.120;-5.168;2023-09-08T10:54:42;14.32;;;5.35;;
69744;SDS011;57015;50.120;-5.168;2023-09-08T10:57:14;16.67;;;5.63;;
69744;SDS011;57015;50.120;-5.168;2023-09-08T10:59:53;14.02;;;5.32;;
69744;SDS011;57015;50.120;-5.168;2023-09-08T11:05:02;12.85;;;4.55;;
69744;SDS011;57015;50.120;-5.168;2023-09-08T11:07:30;10.45;;;4.75;;
69744;SDS011;57015;50.120;-5.168;2023-09-08T11:09:57;14.27;;;5.27;;
69744;SDS011;57015;50.120;-5.168;2023-09-08T11:12:22;12.80;;;4.60;;
69744;SDS011;57015;50.120;-5.168;2023-09-08T11:14:49;10.82;;;5.03;;
69744;SDS011;57015;50.120;-5.168;2023-09-08T11:17:14;10.68;;;4.88;;
69744;SDS011;57015;50.120;-5.168;2023-09-08T11:19:47;12.50;;;5.13;;
69744;SDS011;57015;50.120;-5.168;2023-09-08T11:22:13;15.07;;;5.10;;
69744;SDS011;57015;50.120;-5.168;2023-09-08T11:24:41;10.93;;;5.10;;
69744;SDS011;57015;50.120;-5.168;2023-09-08T11:27:07;8.32;;;5.10;;
69744;SDS011;57015;50.120;-5.168;2023-09-08T11:29:33;10.65;;;5.13;;
69744;SDS011;57015;50.120;-5.168;2023-09-08T11:31:59;16.10;;;5.00;;
69744;SDS011;57015;50.120;-5.168;2023-09-08T11:34:25;10.55;;;5.07;;
69744;SDS011;57015;50.120;-5.168;2023-09-08T11:36:50;10.57;;;5.47;;
69744;SDS011;57015;50.120;-5.168;2023-09-08T11:39:17;12.52;;;4.80;;
69744;SDS011;57015;50.120;-5.168;2023-09-08T11:41:44;13.77;;;5.27;;
69744;SDS011;57015;50.120;-5.168;2023-09-08T11:44:14;11.55;;;5.03;;
69744;SDS011;57015;50.120;-5.168;2023-09-08T11:46:41;9.88;;;4.47;;
69744;SDS011;57015;50.120;-5.168;2023-09-08T11:49:06;14.23;;;5.17;;
69744;SDS011;57015;50.120;-5.168;2023-09-08T11:51:32;14.40;;;5.23;;
69744;SDS011;57015;50.120;-5.168;2023-09-08T11:53:57;13.32;;;4.80;;
69744;SDS011;57015;50.120;-5.168;2023-09-08T11:56:23;15.43;;;5.30;;
69744;SDS011;57015;50.120;-5.168;2023-09-08T11:58:48;16.43;;;4.77;;
69744;SDS011;57015;50.120;-5.168;2023-09-08T12:01:14;15.47;;;4.63;;
69744;SDS011;57015;50.120;-5.168;2023-09-08T12:03:52;20.52;;;4.95;;
69744;SDS011;57015;50.120;-5.168;2023-09-08T12:06:18;14.03;;;3.70;;
69744;SDS011;57015;50.120;-5.168;2023-09-08T12:08:44;16.25;;;4.32;;
69744;SDS011;57015;50.120;-5.168;2023-09-08T12:11:10;16.20;;;3.95;;
69744;SDS011;57015;50.120;-5.168;2023-09-08T12:13:36;14.63;;;4.37;;
69744;SDS011;57015;50.120;-5.168;2023-09-08T12:16:01;13.13;;;4.13;;
69744;SDS011;57015;50.120;-5.168;2023-09-08T12:19:00;19.90;;;5.07;;
69744;SDS011;57015;50.120;-5.168;2023-09-08T12:21:20;17.23;;;4.25;;
69744;SDS011;57015;50.120;-5.168;2023-09-08T12:23:48;17.25;;;4.30;;
69744;SDS011;57015;50.120;-5.168;2023-09-08T12:26:15;15.55;;;4.28;;
69744;SDS011;57015;50.120;-5.168;2023-09-08T12:28:41;16.10;;;4.55;;
69744;SDS011;57015;50.120;-5.168;2023-09-08T12:31:08;14.35;;;4.60;;
69744;SDS011;57015;50.120;-5.168;2023-09-08T12:33:34;14.10;;;5.25;;
69744;SDS011;57015;50.120;-5.168;2023-09-08T12:35:59;15.27;;;4.40;;
69744;SDS011;57015;50.120;-5.168;2023-09-08T12:38:30;17.60;;;4.93;;
69744;SDS011;57015;50.120;-5.168;2023-09-08T12:40:56;20.63;;;5.00;;
69744;SDS011;57015;50.120;-5.168;2023-09-08T12:43:21;10.68;;;4.55;;
69744;SDS011;57015;50.120;-5.168;2023-09-08T12:45:47;14.68;;;4.97;;
69744;SDS011;57015;50.120;-5.168;2023-09-08T12:48:12;11.70;;;5.07;;
69744;SDS011;57015;50.120;-5.168;2023-09-08T12:50:37;17.20;;;4.50;;
69744;SDS011;57015;50.120;-5.168;2023-09-08T12:53:03;14.30;;;4.87;;
69744;SDS011;57015;50.120;-5.168;2023-09-08T12:55:28;16.42;;;5.07;;
69744;SDS011;57015;50.120;-5.168;2023-09-08T12:57:54;17.70;;;4.63;;
69744;SDS011;57015;50.120;-5.168;2023-09-08T13:00:20;11.77;;;4.33;;
69744;SDS011;57015;50.120;-5.168;2023-09-08T13:02:48;13.25;;;5.03;;
69744;SDS011;57015;50.120;-5.168;2023-09-08T13:05:13;21.88;;;5.03;;
69744;SDS011;57015;50.120;-5.168;2023-09-08T13:07:39;20.10;;;5.32;;
69744;SDS011;57015;50.120;-5.168;2023-09-08T13:10:04;15.67;;;5.00;;
69744;SDS011;57015;50.120;-5.168;2023-09-08T13:12:31;17.90;;;5.57;;
69744;SDS011;57015;50.120;-5.168;2023-09-08T13:14:56;11.73;;;5.23;;
69744;SDS011;57015;50.120;-5.168;2023-09-08T13:17:22;17.80;;;5.50;;
69744;SDS011;57015;50.120;-5.168;2023-09-08T13:19:47;18.93;;;4.87;;
69744;SDS011;57015;50.120;-5.168;2023-09-08T13:22:13;14.23;;;4.93;;
69744;SDS011;57015;50.120;-5.168;2023-09-08T13:24:39;14.07;;;5.13;;
69744;SDS011;57015;50.120;-5.168;2023-09-08T13:27:05;13.35;;;5.20;;
69744;SDS011;57015;50.120;-5.168;2023-09-08T13:29:30;19.02;;;5.35;;
69744;SDS011;57015;50.120;-5.168;2023-09-08T13:31:55;15.15;;;5.45;;
69744;SDS011;57015;50.120;-5.168;2023-09-08T13:34:22;13.07;;;5.43;;
69744;SDS011;57015;50.120;-5.168;2023-09-08T13:36:48;15.75;;;4.53;;
69744;SDS011;57015;50.120;-5.168;2023-09-08T13:39:13;17.20;;;4.63;;
69744;SDS011;57015;50.120;-5.168;2023-09-08T13:44:11;18.58;;;5.03;;
69744;SDS011;57015;50.120;-5.168;2023-09-08T13:46:37;11.53;;;4.67;;
69744;SDS011;57015;50.120;-5.168;2023-09-08T13:49:02;16.45;;;4.78;;
69744;SDS011;57015;50.120;-5.168;2023-09-08T13:51:28;17.92;;;5.65;;
69744;SDS011;57015;50.120;-5.168;2023-09-08T13:53:53;24.93;;;5.87;;
69744;SDS011;57015;50.120;-5.168;2023-09-08T13:56:19;16.55;;;5.05;;
69744;SDS011;57015;50.120;-5.168;2023-09-08T13:58:44;18.48;;;5.13;;
69744;SDS011;57015;50.120;-5.168;2023-09-08T14:01:10;16.70;;;4.87;;
69744;SDS011;57015;50.120;-5.168;2023-09-08T14:03:36;15.80;;;5.63;;
69744;SDS011;57015;50.120;-5.168;2023-09-08T14:06:01;19.73;;;5.30;;
69744;SDS011;57015;50.120;-5.168;2023-09-08T14:08:27;25.73;;;6.83;;
69744;SDS011;57015;50.120;-5.168;2023-09-08T14:10:52;17.83;;;7.00;;
69744;SDS011;57015;50.120;-5.168;2023-09-08T14:13:18;20.87;;;7.63;;
69744;SDS011;57015;50.120;-5.168;2023-09-08T14:15:44;20.92;;;7.13;;
69744;SDS011;57015;50.120;-5.168;2023-09-08T14:18:09;10.57;;;4.87;;
69744;SDS011;57015;50.120;-5.168;2023-09-08T14:20:35;14.37;;;4.77;;
69744;SDS011;57015;50.120;-5.168;2023-09-08T14:23:00;9.90;;;5.00;;
69744;SDS011;57015;50.120;-5.168;2023-09-08T14:25:26;12.60;;;4.82;;
69744;SDS011;57015;50.120;-5.168;2023-09-08T14:27:51;13.83;;;4.00;;
69744;SDS011;57015;50.120;-5.168;2023-09-08T14:30:17;11.37;;;4.37;;
69744;SDS011;57015;50.120;-5.168;2023-09-08T14:32:42;10.17;;;3.97;;